createdAt,value
2023-04-07T00:02:10.695Z,11.37
2023-04-07T00:05:13.847Z,11.87
2023-04-07T00:08:17.043Z,11.20
2023-04-07T00:11:21.459Z,11.67
2023-04-07T00:14:24.584Z,11.33
2023-04-07T00:17:27.592Z,13.23
2023-04-07T00:20:30.717Z,11.87
2023-04-07T00:23:33.794Z,10.53
2023-04-07T00:26:38.320Z,11.50
2023-04-07T00:29:43.684Z,11.83
2023-04-07T00:32:46.710Z,11.77
2023-04-07T00:35:49.812Z,9.83
2023-04-07T00:38:52.936Z,10.57
2023-04-07T00:41:57.992Z,10.13
2023-04-07T00:45:01.175Z,9.63
2023-04-07T00:48:04.400Z,9.90
2023-04-07T00:51:08.368Z,9.97
2023-04-07T00:54:12.152Z,9.97
2023-04-07T00:57:16.750Z,9.60
2023-04-07T01:00:20.105Z,9.83
2023-04-07T01:03:32.223Z,10.63
2023-04-07T01:06:40.080Z,9.97
2023-04-07T01:09:49.470Z,8.97
2023-04-07T01:13:03.447Z,9.00
2023-04-07T01:16:12.391Z,9.00
2023-04-07T01:19:27.222Z,9.20
2023-04-07T01:22:35.432Z,9.73
2023-04-07T01:26:11.825Z,9.23
2023-04-07T01:29:40.406Z,8.43
2023-04-07T01:32:46.782Z,7.80
2023-04-07T01:35:51.707Z,9.80
2023-04-07T01:38:55.297Z,9.13
2023-04-07T01:41:59.247Z,9.03
2023-04-07T01:45:04.579Z,9.17
2023-04-07T01:48:09.361Z,8.97
2023-04-07T01:51:17.553Z,8.97
2023-04-07T01:54:21.693Z,8.50
2023-04-07T01:57:24.873Z,9.37
2023-04-07T02:00:29.318Z,8.83
2023-04-07T02:03:37.278Z,9.67
2023-04-07T02:06:46.832Z,10.10
2023-04-07T02:09:52.574Z,10.30
2023-04-07T02:12:57.044Z,9.43
2023-04-07T02:16:02.713Z,9.70
2023-04-07T02:19:06.616Z,9.50
2023-04-07T02:22:10.526Z,9.10
2023-04-07T02:25:27.171Z,10.40
2023-04-07T02:28:30.554Z,9.10
2023-04-07T02:31:35.016Z,10.07
2023-04-07T02:34:38.124Z,9.17
2023-04-07T02:37:41.136Z,8.83
2023-04-07T02:40:44.285Z,8.63
2023-04-07T02:43:50.608Z,8.27
2023-04-07T02:46:55.055Z,8.93
2023-04-07T02:49:58.118Z,8.00
2023-04-07T02:53:01.265Z,9.20
2023-04-07T02:56:04.568Z,9.70
2023-04-07T02:59:07.857Z,8.60
2023-04-07T03:02:12.684Z,8.27
2023-04-07T03:05:16.012Z,9.30
2023-04-07T03:08:19.093Z,9.10
2023-04-07T03:11:22.097Z,10.17
2023-04-07T03:14:25.213Z,8.57
2023-04-07T03:17:29.900Z,10.27
2023-04-07T03:20:32.984Z,8.53
2023-04-07T03:23:36.220Z,9.17
2023-04-07T03:26:39.249Z,10.17
2023-04-07T03:29:42.327Z,8.80
2023-04-07T03:32:46.868Z,10.73
2023-04-07T03:35:50.006Z,9.03
2023-04-07T03:38:53.040Z,10.63
2023-04-07T03:41:56.289Z,9.53
2023-04-07T03:44:59.369Z,9.53
2023-04-07T03:48:03.829Z,8.77
2023-04-07T03:51:07.007Z,9.10
2023-04-07T03:54:10.072Z,9.70
2023-04-07T03:57:13.137Z,9.57
2023-04-07T04:00:16.622Z,10.27
2023-04-07T04:03:21.174Z,9.63
2023-04-07T04:06:24.359Z,9.93
2023-04-07T04:09:27.452Z,10.43
2023-04-07T04:12:30.485Z,9.50
2023-04-07T04:15:33.576Z,9.77
2023-04-07T04:18:38.050Z,9.47
2023-04-07T04:21:41.355Z,10.37
2023-04-07T04:24:44.368Z,9.53
2023-04-07T04:27:47.478Z,10.30
2023-04-07T04:30:50.608Z,10.43
2023-04-07T04:33:55.143Z,9.30
2023-04-07T04:36:58.316Z,10.30
2023-04-07T04:40:01.919Z,10.30
2023-04-07T04:43:07.065Z,10.57
2023-04-07T04:46:10.100Z,10.17
2023-04-07T04:49:15.758Z,9.90
2023-04-07T04:52:18.815Z,10.37
2023-04-07T04:55:21.956Z,9.40
2023-04-07T04:58:24.958Z,11.27
2023-04-07T05:01:28.104Z,9.53
2023-04-07T05:04:32.921Z,11.37
2023-04-07T05:07:37.274Z,11.63
2023-04-07T05:10:42.423Z,10.90
2023-04-07T05:13:45.439Z,9.97
2023-04-07T05:16:48.549Z,10.60
2023-04-07T05:19:52.990Z,12.57
2023-04-07T05:22:56.494Z,10.93
2023-04-07T05:25:59.536Z,11.10
2023-04-07T05:29:02.567Z,11.03
2023-04-07T05:32:07.346Z,10.87
2023-04-07T05:35:12.226Z,11.17
2023-04-07T05:38:16.804Z,12.10
2023-04-07T05:41:19.824Z,11.43
2023-04-07T05:44:22.841Z,11.47
2023-04-07T05:47:26.204Z,11.97
2023-04-07T05:50:30.686Z,11.67
2023-04-07T05:53:33.713Z,12.33
2023-04-07T05:56:36.826Z,13.30
2023-04-07T05:59:39.840Z,11.77
2023-04-07T06:02:43.378Z,13.07
2023-04-07T06:05:48.796Z,13.30
2023-04-07T06:08:51.978Z,13.37
2023-04-07T06:11:55.064Z,13.33
2023-04-07T06:14:58.153Z,13.13
2023-04-07T06:18:01.290Z,12.03
2023-04-07T06:21:06.039Z,12.93
2023-04-07T06:24:09.421Z,12.47
2023-04-07T06:27:12.650Z,12.67
2023-04-07T06:30:16.832Z,12.80
2023-04-07T06:33:23.895Z,12.53
2023-04-07T06:36:29.128Z,12.47
2023-04-07T06:39:32.375Z,12.47
2023-04-07T06:42:35.399Z,12.00
2023-04-07T06:45:38.532Z,12.50
2023-04-07T06:48:41.617Z,12.43
2023-04-07T06:51:46.106Z,12.27
2023-04-07T06:54:49.182Z,11.80
2023-04-07T06:57:52.339Z,13.43
2023-04-07T07:00:55.810Z,11.83
2023-04-07T07:03:58.962Z,12.60
2023-04-07T07:07:03.584Z,13.10
2023-04-07T07:10:07.968Z,12.70
2023-04-07T07:13:11.253Z,12.30
2023-04-07T07:16:14.403Z,11.93
2023-04-07T07:19:17.491Z,11.90
2023-04-07T07:22:21.957Z,12.20
2023-04-07T07:25:26.828Z,11.23
2023-04-07T07:28:30.012Z,11.00
2023-04-07T07:31:33.259Z,11.60
2023-04-07T07:34:36.393Z,11.20
2023-04-07T07:37:40.924Z,10.77
2023-04-07T07:40:43.982Z,11.77
2023-04-07T07:43:49.990Z,11.93
2023-04-07T07:46:53.369Z,11.20
2023-04-07T07:49:56.593Z,10.30
2023-04-07T07:53:01.467Z,9.83
2023-04-07T07:56:04.596Z,10.90
2023-04-07T07:59:07.635Z,10.50
2023-04-07T08:02:11.344Z,8.90
2023-04-07T08:05:14.513Z,10.30
2023-04-07T08:08:18.905Z,9.23
2023-04-07T08:11:22.205Z,8.57
2023-04-07T08:14:25.460Z,9.40
2023-04-07T08:17:28.594Z,9.17
2023-04-07T08:20:31.813Z,8.40
2023-04-07T08:23:36.405Z,8.73
2023-04-07T08:26:39.489Z,7.87
2023-04-07T08:29:42.562Z,8.87
2023-04-07T08:32:46.294Z,7.50
2023-04-07T08:35:49.555Z,8.17
2023-04-07T08:38:54.122Z,7.57
2023-04-07T08:41:58.676Z,7.87
2023-04-07T08:45:05.348Z,8.30
2023-04-07T08:48:15.978Z,9.10
2023-04-07T08:51:28.642Z,8.80
2023-04-07T08:54:34.046Z,9.13
2023-04-07T08:57:38.308Z,9.13
2023-04-07T09:00:43.014Z,8.57
2023-04-07T09:03:46.808Z,8.40
2023-04-07T09:06:50.803Z,7.73
2023-04-07T09:09:56.247Z,7.53
2023-04-07T09:12:59.975Z,6.97
2023-04-07T09:16:03.971Z,6.93
2023-04-07T09:19:07.563Z,6.93
2023-04-07T09:22:12.598Z,8.43
2023-04-07T09:25:18.329Z,6.53
2023-04-07T09:28:22.736Z,6.10
2023-04-07T09:31:45.318Z,6.60
2023-04-07T09:34:48.432Z,5.90
2023-04-07T09:38:12.264Z,7.10
2023-04-07T09:41:18.259Z,6.87
2023-04-07T09:44:21.797Z,6.57
2023-04-07T09:47:29.026Z,6.97
2023-04-07T09:50:36.870Z,5.80
2023-04-07T09:53:45.531Z,6.47
2023-04-07T09:56:51.099Z,6.63
2023-04-07T09:59:55.977Z,6.03
2023-04-07T10:02:59.849Z,5.60
2023-04-07T10:06:03.258Z,6.67
2023-04-07T10:09:06.439Z,6.57
2023-04-07T10:12:11.030Z,6.37
2023-04-07T10:15:15.743Z,6.27
2023-04-07T10:18:21.462Z,5.60
2023-04-07T10:21:24.865Z,5.80
2023-04-07T10:24:39.702Z,6.33
2023-04-07T10:27:50.477Z,5.93
2023-04-07T10:30:54.595Z,5.67
2023-04-07T10:33:58.054Z,5.97
2023-04-07T10:37:13.522Z,5.87
2023-04-07T10:40:30.034Z,5.90
2023-04-07T10:43:44.225Z,6.60
2023-04-07T10:47:06.764Z,5.90
2023-04-07T10:50:21.067Z,6.27
2023-04-07T10:53:24.225Z,5.80
2023-04-07T10:56:27.937Z,5.80
2023-04-07T10:59:33.397Z,6.30
2023-04-07T11:02:37.043Z,5.87
2023-04-07T11:05:40.548Z,7.03
2023-04-07T11:08:47.430Z,6.87
2023-04-07T11:11:53.553Z,7.97
2023-04-07T11:14:59.786Z,7.10
2023-04-07T11:18:15.012Z,6.67
2023-04-07T11:21:20.061Z,8.67
2023-04-07T11:24:37.718Z,8.70
2023-04-07T11:27:40.883Z,9.80
2023-04-07T11:30:51.776Z,10.87
2023-04-07T11:33:56.286Z,10.87
2023-04-07T11:37:20.178Z,13.37
2023-04-07T11:40:34.672Z,14.40
2023-04-07T11:43:37.811Z,17.10
2023-04-07T11:46:55.856Z,16.50
2023-04-07T11:49:58.964Z,15.90
2023-04-07T11:53:02.134Z,15.13
2023-04-07T11:56:07.832Z,15.73
2023-04-07T11:59:19.130Z,14.10
2023-04-07T12:02:34.931Z,15.97
2023-04-07T12:05:44.724Z,16.87
2023-04-07T12:08:47.743Z,12.60
2023-04-07T12:11:51.556Z,11.47
2023-04-07T12:14:54.730Z,11.20
2023-04-07T12:18:02.846Z,10.93
2023-04-07T12:21:06.404Z,9.93
2023-04-07T12:24:09.494Z,10.43
2023-04-07T12:27:12.643Z,10.60
2023-04-07T12:30:15.827Z,10.10
2023-04-07T12:33:20.554Z,9.40
2023-04-07T12:36:23.628Z,10.50
2023-04-07T12:39:27.610Z,10.40
2023-04-07T12:42:30.765Z,9.50
2023-04-07T12:45:34.229Z,9.93
2023-04-07T12:48:38.718Z,10.50
2023-04-07T12:51:41.847Z,10.50
2023-04-07T12:54:45.476Z,9.33
2023-04-07T12:57:48.681Z,10.33
2023-04-07T13:00:52.224Z,9.20
2023-04-07T13:03:57.092Z,8.00
2023-04-07T13:07:02.855Z,8.87
2023-04-07T13:10:08.307Z,7.47
2023-04-07T13:13:11.364Z,6.00
2023-04-07T13:16:14.485Z,6.37
2023-04-07T13:19:18.894Z,5.73
2023-04-07T13:22:24.378Z,5.43
2023-04-07T13:25:27.885Z,5.40
2023-04-07T13:28:30.958Z,5.07
2023-04-07T13:31:34.039Z,5.90
2023-04-07T13:34:38.728Z,6.07
2023-04-07T13:37:41.898Z,6.10
2023-04-07T13:40:45.017Z,6.00
2023-04-07T13:43:48.301Z,6.03
2023-04-07T13:46:51.827Z,5.90
2023-04-07T13:49:59.215Z,5.93
2023-04-07T13:53:02.270Z,6.90
2023-04-07T13:56:08.349Z,6.17
2023-04-07T13:59:11.427Z,6.30
2023-04-07T14:02:14.805Z,6.27
2023-04-07T14:05:19.447Z,5.93
2023-04-07T14:08:23.638Z,6.53
2023-04-07T14:11:27.183Z,7.47
2023-04-07T14:14:30.472Z,6.33
2023-04-07T14:17:33.560Z,6.30
2023-04-07T14:20:38.451Z,6.53
2023-04-07T14:23:42.237Z,6.37
2023-04-07T14:26:46.292Z,6.97
2023-04-07T14:29:49.806Z,6.37
2023-04-07T14:32:53.516Z,6.67
2023-04-07T14:35:59.282Z,6.50
2023-04-07T14:39:02.694Z,7.00
2023-04-07T14:42:05.757Z,6.87
2023-04-07T14:45:09.790Z,6.60
2023-04-07T14:48:13.580Z,6.20
2023-04-07T14:51:18.283Z,6.07
2023-04-07T14:54:21.632Z,6.70
2023-04-07T14:57:24.700Z,6.13
2023-04-07T15:00:28.776Z,7.03
2023-04-07T15:03:31.973Z,6.67
2023-04-07T15:06:36.635Z,6.77
2023-04-07T15:09:39.645Z,7.07
2023-04-07T15:12:42.696Z,6.30
2023-04-07T15:15:45.825Z,6.70
2023-04-07T15:18:49.663Z,6.50
2023-04-07T15:21:54.052Z,6.20
2023-04-07T15:24:57.125Z,6.43
2023-04-07T15:28:00.273Z,6.30
2023-04-07T15:31:03.429Z,6.23
2023-04-07T15:34:06.546Z,6.73
2023-04-07T15:37:10.950Z,7.13
2023-04-07T15:40:14.180Z,6.43
2023-04-07T15:43:17.314Z,5.93
2023-04-07T15:46:20.351Z,7.03
2023-04-07T15:49:25.742Z,6.60
2023-04-07T15:52:31.786Z,7.03
2023-04-07T15:55:35.297Z,7.17
2023-04-07T15:58:38.634Z,6.67
2023-04-07T16:01:41.775Z,6.50
2023-04-07T16:04:47.423Z,6.57
2023-04-07T16:07:51.928Z,7.00
2023-04-07T16:10:55.072Z,6.97
2023-04-07T16:13:58.072Z,7.20
2023-04-07T16:17:03.980Z,7.20
2023-04-07T16:20:10.082Z,6.77
2023-04-07T16:23:14.502Z,7.67
2023-04-07T16:26:17.634Z,7.17
2023-04-07T16:29:22.371Z,6.40
2023-04-07T16:32:25.600Z,7.23
2023-04-07T16:35:30.215Z,7.27
2023-04-07T16:38:34.618Z,7.90
2023-04-07T16:41:37.712Z,6.80
2023-04-07T16:44:40.872Z,7.13
2023-04-07T16:47:44.559Z,7.63
2023-04-07T16:50:48.866Z,7.43
2023-04-07T16:53:53.529Z,7.73
2023-04-07T16:56:56.689Z,7.17
2023-04-07T16:59:59.904Z,7.33
2023-04-07T17:03:03.301Z,7.67
2023-04-07T17:06:07.108Z,7.80
2023-04-07T17:09:12.186Z,8.20
2023-04-07T17:12:15.676Z,7.97
2023-04-07T17:15:20.398Z,7.80
2023-04-07T17:18:23.693Z,7.10
2023-04-07T17:21:27.517Z,7.93
2023-04-07T17:24:31.953Z,7.63
2023-04-07T17:27:34.944Z,7.33
2023-04-07T17:30:38.081Z,8.00
2023-04-07T17:33:41.267Z,8.53
2023-04-07T17:36:44.318Z,8.00
2023-04-07T17:39:48.976Z,8.13
2023-04-07T17:42:51.984Z,8.53
2023-04-07T17:45:55.539Z,9.00
2023-04-07T17:48:58.997Z,8.67
2023-04-07T17:52:02.801Z,7.83
2023-04-07T17:55:09.267Z,11.73
2023-04-07T17:58:12.556Z,7.77
2023-04-07T18:01:16.884Z,7.30
2023-04-07T18:04:20.143Z,7.77
2023-04-07T18:07:23.877Z,6.97
2023-04-07T18:10:28.378Z,7.47
2023-04-07T18:13:31.561Z,7.03
2023-04-07T18:16:35.153Z,7.23
2023-04-07T18:19:39.926Z,7.37
2023-04-07T18:22:44.033Z,6.17
2023-04-07T18:25:49.415Z,7.33
2023-04-07T18:28:52.506Z,6.70
2023-04-07T18:31:55.714Z,6.13
2023-04-07T18:34:59.068Z,6.50
2023-04-07T18:38:04.461Z,7.37
2023-04-07T18:41:09.348Z,6.83
2023-04-07T18:44:12.698Z,6.90
2023-04-07T18:47:16.126Z,7.40
2023-04-07T18:50:19.734Z,6.83
2023-04-07T18:53:24.622Z,6.60
2023-04-07T18:56:30.079Z,6.73
2023-04-07T18:59:33.234Z,6.80
2023-04-07T19:02:38.633Z,7.33
2023-04-07T19:05:47.526Z,6.70
2023-04-07T19:08:51.401Z,7.13
2023-04-07T19:11:57.083Z,6.33
2023-04-07T19:15:00.541Z,6.00
2023-04-07T19:18:03.908Z,6.20
2023-04-07T19:21:07.938Z,6.27
2023-04-07T19:24:11.261Z,6.33
2023-04-07T19:27:16.677Z,6.63
2023-04-07T19:30:20.061Z,5.77
2023-04-07T19:33:23.203Z,6.97
2023-04-07T19:36:28.831Z,5.87
2023-04-07T19:39:32.081Z,6.57
2023-04-07T19:42:39.178Z,7.23
2023-04-07T19:45:42.286Z,7.33
2023-04-07T19:48:45.447Z,6.07
2023-04-07T19:51:49.012Z,7.00
2023-04-07T19:54:52.558Z,6.63
2023-04-07T19:57:57.143Z,7.20
2023-04-07T20:01:00.301Z,6.70
2023-04-07T20:04:03.800Z,6.97
2023-04-07T20:07:07.526Z,8.00
2023-04-07T20:10:11.110Z,8.00
2023-04-07T20:13:15.611Z,7.70
2023-04-07T20:16:18.824Z,8.50
2023-04-07T20:19:22.736Z,8.07
2023-04-07T20:22:26.309Z,8.83
2023-04-07T20:25:29.393Z,9.50
2023-04-07T20:28:33.871Z,8.77
2023-04-07T20:31:36.967Z,8.30
2023-04-07T20:34:40.216Z,8.67
2023-04-07T20:37:44.522Z,9.53
2023-04-07T20:40:47.617Z,9.13
2023-04-07T20:43:54.840Z,9.70
2023-04-07T20:46:57.858Z,9.60
2023-04-07T20:50:00.921Z,9.70
2023-04-07T20:53:04.004Z,11.07
2023-04-07T20:56:07.350Z,11.33
2023-04-07T20:59:11.835Z,10.10
2023-04-07T21:02:15.000Z,10.63
2023-04-07T21:05:18.542Z,11.17
2023-04-07T21:08:23.424Z,10.50
2023-04-07T21:11:26.455Z,11.27
2023-04-07T21:14:31.633Z,10.27
2023-04-07T21:17:37.228Z,10.10
2023-04-07T21:20:40.393Z,10.00
2023-04-07T21:23:43.593Z,11.20
2023-04-07T21:26:49.006Z,10.97
2023-04-07T21:29:53.479Z,10.77
2023-04-07T21:32:56.510Z,11.13
2023-04-07T21:36:01.558Z,11.07
2023-04-07T21:39:04.816Z,10.87
2023-04-07T21:42:08.769Z,11.00
2023-04-07T21:45:13.854Z,10.13
2023-04-07T21:48:20.727Z,10.10
2023-04-07T21:51:23.962Z,12.73
2023-04-07T21:54:27.109Z,11.70
2023-04-07T21:57:30.679Z,11.63
2023-04-07T22:00:36.522Z,10.97
2023-04-07T22:03:39.951Z,12.03
2023-04-07T22:06:43.205Z,10.80
2023-04-07T22:09:47.122Z,11.80
2023-04-07T22:12:50.372Z,11.23
2023-04-07T22:15:55.057Z,11.93
2023-04-07T22:18:58.212Z,11.80
2023-04-07T22:22:01.228Z,12.70
2023-04-07T22:25:04.413Z,11.77
2023-04-07T22:28:07.475Z,11.53
2023-04-07T22:31:13.916Z,12.77
2023-04-07T22:34:16.978Z,12.90
2023-04-07T22:37:20.381Z,12.40
2023-04-07T22:40:23.616Z,11.43
2023-04-07T22:43:26.831Z,13.07
2023-04-07T22:46:31.279Z,14.33
2023-04-07T22:49:34.398Z,13.37
2023-04-07T22:52:37.389Z,13.27
2023-04-07T22:55:40.738Z,13.47
2023-04-07T22:58:43.777Z,13.27
2023-04-07T23:01:48.288Z,13.00
2023-04-07T23:04:51.536Z,12.97
2023-04-07T23:07:56.806Z,12.73
2023-04-07T23:10:59.828Z,13.47
2023-04-07T23:14:04.979Z,13.40
2023-04-07T23:17:09.510Z,13.43
2023-04-07T23:20:15.703Z,13.03
2023-04-07T23:23:18.859Z,13.23
2023-04-07T23:26:21.919Z,12.53
2023-04-07T23:29:25.071Z,13.13
2023-04-07T23:32:29.641Z,12.03
2023-04-07T23:35:32.794Z,13.73
2023-04-07T23:38:36.359Z,13.30
2023-04-07T23:41:39.699Z,13.23
2023-04-07T23:44:42.847Z,12.97
2023-04-07T23:47:47.441Z,13.83
2023-04-07T23:50:51.312Z,13.77
2023-04-07T23:53:54.448Z,13.87
2023-04-07T23:56:58.300Z,13.47
